Time;durP1;ratioP1;P1;durP2;ratioP2;P2;SDS_P1;SDS_P2;PMS_P1;PMS_P2;Temp;Humidity;BMP_temperature;BMP_pressure;BME280_temperature;BME280_humidity;BME280_pressure;Samples;Min_cycle;Max_cycle;Signal;HPM_P1;HPM_P2
2022/05/07 00:02:24;;;;;;;29.83;16.33;;;;;;;;;;6327039;28;20131;-61
2022/05/07 00:05:25;;;;;;;28.80;15.25;;;;;;;;;;6328377;28;20039;-57
2022/05/07 00:08:26;;;;;;;28.88;16.80;;;;;;;;;;6319340;28;21030;-58
2022/05/07 00:11:26;;;;;;;37.10;18.35;;;;;;;;;;6321491;28;20044;-57
2022/05/07 00:14:27;;;;;;;32.83;16.95;;;;;;;;;;6325885;28;20915;-58
2022/05/07 00:20:48;;;;;;;34.40;17.88;;;;;;;;;;6319798;28;20072;-58
2022/05/07 00:23:48;;;;;;;34.78;19.13;;;;;;;;;;6325674;28;20094;-58
2022/05/07 00:26:49;;;;;;;30.38;17.70;;;;;;;;;;6324539;28;20054;-58
2022/05/07 00:29:49;;;;;;;33.83;18.13;;;;;;;;;;6315669;28;20730;-58
2022/05/07 00:32:50;;;;;;;34.22;18.30;;;;;;;;;;6327289;28;20075;-58
2022/05/07 00:35:51;;;;;;;35.92;18.45;;;;;;;;;;6316079;28;20105;-58
2022/05/07 00:38:52;;;;;;;41.67;20.23;;;;;;;;;;6324568;28;20052;-58
2022/05/07 00:41:53;;;;;;;38.60;20.38;;;;;;;;;;6327204;28;20048;-56
2022/05/07 00:44:53;;;;;;;44.35;19.85;;;;;;;;;;6315771;28;20087;-57
2022/05/07 00:47:54;;;;;;;40.47;20.85;;;;;;;;;;6322711;28;20100;-57
2022/05/07 00:54:14;;;;;;;38.92;19.83;;;;;;;;;;6318498;28;20133;-58
2022/05/07 00:57:15;;;;;;;38.40;20.35;;;;;;;;;;6327040;28;20495;-57
2022/05/07 01:00:17;;;;;;;35.65;19.73;;;;;;;;;;6325759;28;20138;-61
2022/05/07 01:03:17;;;;;;;39.05;19.90;;;;;;;;;;6320122;28;20050;-57
2022/05/07 01:06:19;;;;;;;36.33;20.33;;;;;;;;;;6328594;28;20027;-57
2022/05/07 01:09:20;;;;;;;37.63;19.77;;;;;;;;;;6322655;28;20043;-58
2022/05/07 01:12:21;;;;;;;39.40;20.08;;;;;;;;;;6326935;28;20087;-57
2022/05/07 01:15:22;;;;;;;34.05;18.23;;;;;;;;;;6314155;28;20139;-58
2022/05/07 01:18:23;;;;;;;31.27;17.67;;;;;;;;;;6327524;28;20050;-58
2022/05/07 01:21:24;;;;;;;28.95;17.80;;;;;;;;;;6320556;28;20044;-59
2022/05/07 01:24:25;;;;;;;33.17;17.42;;;;;;;;;;6315258;28;20440;-56
2022/05/07 01:27:25;;;;;;;33.97;19.25;;;;;;;;;;6313901;28;20703;-57
2022/05/07 01:30:26;;;;;;;33.67;17.42;;;;;;;;;;6320111;28;21062;-57
2022/05/07 01:33:27;;;;;;;27.52;15.57;;;;;;;;;;6326653;28;20082;-58
2022/05/07 01:36:28;;;;;;;27.92;15.27;;;;;;;;;;6326857;28;20089;-56
2022/05/07 01:39:28;;;;;;;25.17;14.85;;;;;;;;;;6314890;28;20075;-58
2022/05/07 01:42:29;;;;;;;29.92;15.63;;;;;;;;;;6321103;28;20044;-58
2022/05/07 01:45:29;;;;;;;26.30;14.60;;;;;;;;;;6320034;28;20159;-59
2022/05/07 01:48:31;;;;;;;24.25;14.90;;;;;;;;;;6315657;28;20566;-57
2022/05/07 01:51:31;;;;;;;25.93;15.03;;;;;;;;;;6318068;28;20209;-58
2022/05/07 01:54:33;;;;;;;27.65;15.20;;;;;;;;;;6325317;28;20048;-57
2022/05/07 01:57:34;;;;;;;26.35;15.90;;;;;;;;;;6322606;28;20126;-57
2022/05/07 02:00:36;;;;;;;26.27;15.13;;;;;;;;;;6321441;28;20502;-57
2022/05/07 02:03:38;;;;;;;25.15;14.80;;;;;;;;;;6317731;28;20044;-62
2022/05/07 02:06:38;;;;;;;;;;;;;;;;;;6322894;28;20052;-59
2022/05/07 02:09:39;;;;;;;23.48;14.30;;;;;;;;;;6313732;28;19977;-57
2022/05/07 02:12:40;;;;;;;23.67;14.20;;;;;;;;;;6331604;28;20440;-57
2022/05/07 02:15:40;;;;;;;25.65;14.88;;;;;;;;;;6329684;28;20043;-60
2022/05/07 02:18:41;;;;;;;27.65;15.57;;;;;;;;;;6323606;28;20062;-58
2022/05/07 02:21:41;;;;;;;26.55;15.38;;;;;;;;;;6318290;28;20056;-59
2022/05/07 02:24:42;;;;;;;27.35;15.15;;;;;;;;;;6329609;28;20135;-58
2022/05/07 02:27:43;;;;;;;28.70;15.50;;;;;;;;;;6328038;28;20139;-57
2022/05/07 02:30:44;;;;;;;26.33;15.98;;;;;;;;;;6321535;28;20039;-64
2022/05/07 02:33:44;;;;;;;25.90;16.13;;;;;;;;;;6319754;28;20104;-57
2022/05/07 02:36:45;;;;;;;25.08;15.10;;;;;;;;;;6324417;28;20047;-56
2022/05/07 02:39:46;;;;;;;30.63;16.00;;;;;;;;;;6319040;28;20052;-56
2022/05/07 02:42:46;;;;;;;28.70;15.23;;;;;;;;;;6331481;28;20443;-58
2022/05/07 02:45:47;;;;;;;24.55;15.02;;;;;;;;;;6327524;28;20554;-57
2022/05/07 02:48:48;;;;;;;23.10;14.70;;;;;;;;;;6330942;28;20055;-57
2022/05/07 02:51:48;;;;;;;31.33;16.02;;;;;;;;;;6323788;28;20076;-57
2022/05/07 02:54:49;;;;;;;30.95;15.55;;;;;;;;;;6322534;28;20631;-61
2022/05/07 02:57:49;;;;;;;29.83;16.00;;;;;;;;;;6322887;28;20457;-56
2022/05/07 03:00:50;;;;;;;28.13;16.02;;;;;;;;;;6322204;28;20140;-57
2022/05/07 03:03:51;;;;;;;27.95;16.13;;;;;;;;;;6323029;28;20135;-58
2022/05/07 03:06:51;;;;;;;26.08;15.73;;;;;;;;;;6322919;28;20059;-59
2022/05/07 03:09:52;;;;;;;27.77;15.27;;;;;;;;;;6321625;28;20043;-57
2022/05/07 03:12:52;;;;;;;24.52;15.05;;;;;;;;;;6327292;28;20048;-58
2022/05/07 03:15:53;;;;;;;29.92;15.77;;;;;;;;;;6329689;28;20146;-58
2022/05/07 03:18:54;;;;;;;24.38;16.15;;;;;;;;;;6330246;28;20047;-59
2022/05/07 03:21:55;;;;;;;30.33;15.82;;;;;;;;;;6323267;28;20143;-56
2022/05/07 03:24:55;;;;;;;24.90;15.27;;;;;;;;;;6326242;28;20123;-57
2022/05/07 03:27:56;;;;;;;28.60;15.77;;;;;;;;;;6325132;28;20113;-57
2022/05/07 03:30:56;;;;;;;27.08;14.85;;;;;;;;;;6324737;28;20042;-59
2022/05/07 03:33:57;;;;;;;29.25;15.05;;;;;;;;;;6320112;28;20144;-58
2022/05/07 03:36:58;;;;;;;25.33;15.05;;;;;;;;;;6326776;28;20126;-57
2022/05/07 03:39:58;;;;;;;26.52;15.23;;;;;;;;;;6326193;28;20044;-57
2022/05/07 03:42:59;;;;;;;26.98;15.18;;;;;;;;;;6326759;28;20426;-57
2022/05/07 03:45:59;;;;;;;24.13;14.68;;;;;;;;;;6329999;28;20438;-59
2022/05/07 03:49:00;;;;;;;22.27;15.30;;;;;;;;;;6323511;28;20060;-58
2022/05/07 03:55:20;;;;;;;27.50;16.00;;;;;;;;;;6320381;28;20044;-58
2022/05/07 03:58:21;;;;;;;30.35;17.38;;;;;;;;;;6331776;28;20138;-58
2022/05/07 04:01:21;;;;;;;30.98;16.73;;;;;;;;;;6317863;28;20522;-56
2022/05/07 04:04:22;;;;;;;28.00;16.95;;;;;;;;;;6317356;28;20052;-58
2022/05/07 04:07:23;;;;;;;31.48;18.15;;;;;;;;;;6326941;28;20072;-57
2022/05/07 04:10:23;;;;;;;29.63;16.85;;;;;;;;;;6322040;28;20586;-56
2022/05/07 04:13:24;;;;;;;29.02;15.75;;;;;;;;;;6330262;28;20615;-57
2022/05/07 04:16:25;;;;;;;28.30;16.83;;;;;;;;;;6322641;28;20103;-57
2022/05/07 04:19:25;;;;;;;30.17;16.48;;;;;;;;;;6322350;28;20642;-57
2022/05/07 04:22:26;;;;;;;30.35;17.40;;;;;;;;;;6321205;28;20526;-57
2022/05/07 04:25:27;;;;;;;30.42;17.65;;;;;;;;;;6316205;28;20044;-58
2022/05/07 04:28:27;;;;;;;31.33;18.30;;;;;;;;;;6323990;28;20035;-57
2022/05/07 04:31:28;;;;;;;27.08;17.10;;;;;;;;;;6324066;28;20058;-58
2022/05/07 04:34:29;;;;;;;34.67;18.73;;;;;;;;;;6322597;28;20181;-57
2022/05/07 04:37:30;;;;;;;30.00;17.55;;;;;;;;;;6323393;28;20082;-57
2022/05/07 04:40:31;;;;;;;30.40;19.05;;;;;;;;;;6322119;28;20044;-54
2022/05/07 04:43:31;;;;;;;37.05;18.63;;;;;;;;;;6329592;28;20642;-55
2022/05/07 04:46:32;;;;;;;32.63;19.15;;;;;;;;;;6314831;28;20123;-56
2022/05/07 04:49:33;;;;;;;34.05;19.63;;;;;;;;;;6324365;28;20088;-54
2022/05/07 04:52:33;;;;;;;36.15;20.05;;;;;;;;;;6322002;28;20051;-53
2022/05/07 04:55:34;;;;;;;36.20;20.25;;;;;;;;;;6323122;28;20055;-54
2022/05/07 04:58:34;;;;;;;34.95;20.98;;;;;;;;;;6324261;28;20151;-54
2022/05/07 05:01:35;;;;;;;37.97;21.33;;;;;;;;;;6325701;28;20055;-55
2022/05/07 05:04:37;;;;;;;38.65;21.50;;;;;;;;;;6330035;28;20122;-56
2022/05/07 05:07:38;;;;;;;;;;;;;;;;;;6325824;28;20485;-55
2022/05/07 05:10:38;;;;;;;39.80;19.95;;;;;;;;;;6321397;28;19919;-53
2022/05/07 05:13:39;;;;;;;37.28;21.15;;;;;;;;;;6319528;28;20043;-54
2022/05/07 05:16:39;;;;;;;32.88;19.65;;;;;;;;;;6312437;27;20590;-50
2022/05/07 05:19:40;;;;;;;35.70;19.90;;;;;;;;;;6315221;28;20687;-53
2022/05/07 05:22:50;;;;;;;40.35;20.48;;;;;;;;;;6323398;28;20348;-52
2022/05/07 05:25:51;;;;;;;39.75;19.83;;;;;;;;;;6323944;28;20063;-52
2022/05/07 05:28:51;;;;;;;33.55;19.65;;;;;;;;;;6325218;28;20070;-54
2022/05/07 05:31:52;;;;;;;35.08;21.17;;;;;;;;;;6327182;28;20051;-54
2022/05/07 05:34:53;;;;;;;38.38;20.92;;;;;;;;;;6331767;28;20186;-52
2022/05/07 05:37:54;;;;;;;37.20;20.58;;;;;;;;;;6311330;28;20096;-53
2022/05/07 05:40:55;;;;;;;36.53;21.08;;;;;;;;;;6321460;28;20051;-57
2022/05/07 05:43:55;;;;;;;40.65;20.90;;;;;;;;;;6310516;28;20040;-56
2022/05/07 05:46:56;;;;;;;42.28;22.75;;;;;;;;;;6311921;28;20521;-55
2022/05/07 05:49:57;;;;;;;38.03;22.27;;;;;;;;;;6314030;28;20055;-54
2022/05/07 05:52:58;;;;;;;37.17;21.92;;;;;;;;;;6315067;28;20135;-51
2022/05/07 05:56:00;;;;;;;37.83;23.30;;;;;;;;;;6316672;28;20106;-59
2022/05/07 05:59:01;;;;;;;44.67;24.58;;;;;;;;;;6330121;28;20055;-59
2022/05/07 06:02:02;;;;;;;44.45;23.10;;;;;;;;;;6326806;28;20058;-59
2022/05/07 06:05:04;;;;;;;39.92;22.95;;;;;;;;;;6330046;28;20051;-59
2022/05/07 06:08:05;;;;;;;37.50;22.52;;;;;;;;;;6337446;28;20059;-60
2022/05/07 06:11:05;;;;;;;41.05;22.75;;;;;;;;;;6339924;28;20494;-59
2022/05/07 06:14:06;;;;;;;40.53;21.38;;;;;;;;;;6337201;28;20047;-59
2022/05/07 06:17:07;;;;;;;37.25;21.08;;;;;;;;;;6337218;28;20073;-60
2022/05/07 06:20:10;;;;;;;41.10;21.17;;;;;;;;;;6337364;28;20064;-60
2022/05/07 06:23:11;;;;;;;35.85;20.73;;;;;;;;;;6335580;28;20051;-61
2022/05/07 06:29:31;;;;;;;34.50;19.92;;;;;;;;;;6322021;28;20550;-60
2022/05/07 06:32:33;;;;;;;38.83;20.55;;;;;;;;;;6323699;28;20047;-59
2022/05/07 06:35:33;;;;;;;29.45;17.90;;;;;;;;;;6321604;28;20180;-60
2022/05/07 06:38:35;;;;;;;33.70;18.38;;;;;;;;;;6326417;28;20138;-59
2022/05/07 06:41:35;;;;;;;34.00;17.73;;;;;;;;;;6316718;28;20050;-60
2022/05/07 06:44:36;;;;;;;33.13;18.73;;;;;;;;;;6318874;28;20051;-62
2022/05/07 06:47:37;;;;;;;32.05;18.52;;;;;;;;;;6323149;28;20051;-60
2022/05/07 06:50:38;;;;;;;28.48;16.85;;;;;;;;;;6323945;28;20074;-59
2022/05/07 06:53:39;;;;;;;31.98;15.27;;;;;;;;;;6317568;28;20143;-59
2022/05/07 06:56:40;;;;;;;26.15;14.77;;;;;;;;;;6316761;28;20089;-60
2022/05/07 06:59:43;;;;;;;30.00;14.57;;;;;;;;;;6333340;27;20486;-60
2022/05/07 07:02:44;;;;;;;27.40;14.43;;;;;;;;;;6319048;28;20089;-60
2022/05/07 07:05:44;;;;;;;24.50;12.15;;;;;;;;;;6333810;28;20585;-61
2022/05/07 07:08:45;;;;;;;23.00;12.45;;;;;;;;;;6323299;28;20128;-60
2022/05/07 07:11:46;;;;;;;23.38;12.07;;;;;;;;;;6319346;28;20044;-60
2022/05/07 07:14:47;;;;;;;24.55;12.80;;;;;;;;;;6329896;28;20033;-61
2022/05/07 07:17:48;;;;;;;20.25;12.20;;;;;;;;;;6317272;28;20088;-60
2022/05/07 07:20:49;;;;;;;25.27;12.57;;;;;;;;;;6318584;28;20088;-60
2022/05/07 07:23:50;;;;;;;25.02;12.60;;;;;;;;;;6318395;28;20051;-60
2022/05/07 07:26:51;;;;;;;22.85;11.70;;;;;;;;;;6320108;28;20066;-60
2022/05/07 07:29:52;;;;;;;25.65;11.50;;;;;;;;;;6325830;28;20076;-60
2022/05/07 07:32:53;;;;;;;19.80;11.23;;;;;;;;;;6333842;28;20078;-60
2022/05/07 07:35:53;;;;;;;17.85;10.50;;;;;;;;;;6322887;28;20081;-60
2022/05/07 07:38:54;;;;;;;16.75;10.02;;;;;;;;;;6328457;28;20047;-60
2022/05/07 07:41:55;;;;;;;20.33;10.77;;;;;;;;;;6322187;28;20048;-60
2022/05/07 07:48:15;;;;;;;19.95;9.95;;;;;;;;;;6326875;28;20101;-60
2022/05/07 07:51:18;;;;;;;20.15;10.25;;;;;;;;;;6328266;28;20048;-61
2022/05/07 07:54:19;;;;;;;19.75;10.93;;;;;;;;;;6326972;28;20044;-59
2022/05/07 07:57:19;;;;;;;18.15;11.45;;;;;;;;;;6322345;28;20098;-60
2022/05/07 08:00:20;;;;;;;18.73;10.75;;;;;;;;;;6324874;28;20047;-60
2022/05/07 08:03:21;;;;;;;18.52;11.88;;;;;;;;;;6331809;28;20084;-59
2022/05/07 08:06:21;;;;;;;17.10;11.00;;;;;;;;;;6330570;28;20040;-60
2022/05/07 08:12:41;;;;;;;16.45;9.68;;;;;;;;;;6333098;28;21238;-59
2022/05/07 08:15:42;;;;;;;17.85;10.02;;;;;;;;;;6332199;28;20044;-61
2022/05/07 08:18:42;;;;;;;22.55;10.00;;;;;;;;;;6321460;28;20138;-60
2022/05/07 08:21:43;;;;;;;21.58;9.75;;;;;;;;;;6335300;28;20051;-61
2022/05/07 08:24:44;;;;;;;20.75;10.60;;;;;;;;;;6330655;28;20490;-55
2022/05/07 08:27:44;;;;;;;17.42;9.38;;;;;;;;;;6332443;28;20051;-58
2022/05/07 08:30:45;;;;;;;15.88;8.68;;;;;;;;;;6335123;28;20127;-64
2022/05/07 08:33:46;;;;;;;18.63;9.63;;;;;;;;;;6318943;28;20082;-59
2022/05/07 08:36:47;;;;;;;17.58;9.55;;;;;;;;;;6318758;28;20782;-59
2022/05/07 08:39:48;;;;;;;18.67;9.63;;;;;;;;;;6332452;28;20047;-58
2022/05/07 08:42:48;;;;;;;17.17;9.57;;;;;;;;;;6328139;28;20068;-59
2022/05/07 08:45:49;;;;;;;22.17;10.20;;;;;;;;;;6338560;28;20036;-63
2022/05/07 08:48:51;;;;;;;18.42;9.77;;;;;;;;;;6318958;28;20135;-61
2022/05/07 08:51:56;;;;;;;20.17;9.23;;;;;;;;;;6337474;28;20047;-58
2022/05/07 08:54:58;;;;;;;14.95;8.77;;;;;;;;;;6323463;28;20055;-61
2022/05/07 08:57:59;;;;;;;20.33;9.25;;;;;;;;;;6328684;28;20543;-63
2022/05/07 09:01:00;;;;;;;21.55;9.48;;;;;;;;;;6329609;28;20148;-59
2022/05/07 09:04:11;;;;;;;16.85;9.10;;;;;;;;;;6329521;28;20092;-61
2022/05/07 09:07:14;;;;;;;17.58;8.90;;;;;;;;;;6334946;28;20050;-60
2022/05/07 09:10:15;;;;;;;15.65;9.27;;;;;;;;;;6335062;28;20067;-63
2022/05/07 09:13:17;;;;;;;18.60;8.88;;;;;;;;;;6328731;28;20485;-60
2022/05/07 09:16:18;;;;;;;17.90;9.23;;;;;;;;;;6331240;27;20043;-61
2022/05/07 09:19:25;;;;;;;20.40;9.15;;;;;;;;;;6333916;28;20139;-63
2022/05/07 09:22:26;;;;;;;21.30;9.05;;;;;;;;;;6332451;28;20072;-50
2022/05/07 09:25:27;;;;;;;16.40;8.55;;;;;;;;;;6329361;28;20051;-56
2022/05/07 09:28:28;;;;;;;16.85;8.75;;;;;;;;;;6325421;28;21266;-58
2022/05/07 09:31:31;;;;;;;16.92;8.30;;;;;;;;;;6327362;28;20043;-58
2022/05/07 09:37:57;;;;;;;14.45;8.55;;;;;;;;;;6326630;28;20052;-58
2022/05/07 09:40:59;;;;;;;18.48;9.35;;;;;;;;;;6326915;28;20423;-58
2022/05/07 09:44:00;;;;;;;18.33;8.77;;;;;;;;;;6328143;28;20043;-58
2022/05/07 09:47:01;;;;;;;17.43;9.00;;;;;;;;;;6323313;28;20680;-58
2022/05/07 09:50:20;;;;;;;17.42;9.55;;;;;;;;;;6324811;27;20142;-58
2022/05/07 10:00:07;;;;;;;25.33;11.43;;;;;;;;;;6325775;28;20172;-58
2022/05/07 10:03:21;;;;;;;19.33;11.23;;;;;;;;;;6325710;28;20102;-58
2022/05/07 10:06:23;;;;;;;37.78;16.25;;;;;;;;;;6324668;28;20485;-57
2022/05/07 10:09:28;;;;;;;27.73;13.70;;;;;;;;;;6325030;28;20116;-57
2022/05/07 10:12:29;;;;;;;20.65;11.07;;;;;;;;;;6324761;28;20036;-58
2022/05/07 10:15:30;;;;;;;22.27;11.20;;;;;;;;;;6323174;28;20050;-56
2022/05/07 10:18:41;;;;;;;19.58;10.75;;;;;;;;;;6321011;28;20063;-58
2022/05/07 10:21:41;;;;;;;21.48;10.75;;;;;;;;;;6325408;28;20452;-58
2022/05/07 10:24:43;;;;;;;19.90;9.13;;;;;;;;;;6321427;28;20070;-57
2022/05/07 10:27:44;;;;;;;17.25;9.95;;;;;;;;;;6324427;28;20124;-57
2022/05/07 10:30:46;;;;;;;;;;;;;;;;;;6324651;28;20528;-59
2022/05/07 10:33:47;;;;;;;21.15;11.18;;;;;;;;;;6328137;27;19927;-57
2022/05/07 10:37:07;;;;;;;23.63;10.77;;;;;;;;;;6328779;27;20101;-59
2022/05/07 10:40:12;;;;;;;17.35;10.23;;;;;;;;;;6331246;27;20096;-60
2022/05/07 10:43:26;;;;;;;16.23;10.40;;;;;;;;;;6332443;28;20483;-60
2022/05/07 10:46:42;;;;;;;20.33;10.82;;;;;;;;;;6333222;27;20062;-58
2022/05/07 10:49:53;;;;;;;14.80;8.95;;;;;;;;;;6334161;27;20459;-59
2022/05/07 10:52:55;;;;;;;18.93;9.33;;;;;;;;;;6331836;27;20606;-60
2022/05/07 10:55:56;;;;;;;15.32;9.15;;;;;;;;;;6330522;28;20354;-60
2022/05/07 10:58:57;;;;;;;15.68;9.45;;;;;;;;;;6333545;27;20500;-59
2022/05/07 11:02:10;;;;;;;18.20;10.25;;;;;;;;;;6331804;27;20134;-60
2022/05/07 11:05:14;;;;;;;18.95;10.15;;;;;;;;;;6332354;27;20065;-60
2022/05/07 11:08:15;;;;;;;19.73;10.48;;;;;;;;;;6330900;28;20642;-59
2022/05/07 11:11:17;;;;;;;18.75;10.10;;;;;;;;;;6330621;28;20036;-58
2022/05/07 11:17:52;;;;;;;16.25;7.93;;;;;;;;;;6320438;22;19970;-58
2022/05/07 11:21:01;;;;;;;19.35;8.27;;;;;;;;;;6225414;28;20092;-59
2022/05/07 11:24:02;;;;;;;17.55;8.52;;;;;;;;;;6229710;28;20099;-60
2022/05/07 11:27:05;;;;;;;13.87;8.07;;;;;;;;;;6232636;28;20042;-60
2022/05/07 11:30:10;;;;;;;15.52;7.72;;;;;;;;;;6233603;28;20053;-59
2022/05/07 11:33:11;;;;;;;11.65;7.22;;;;;;;;;;6229459;28;20141;-59
2022/05/07 11:36:11;;;;;;;14.02;7.03;;;;;;;;;;6232952;28;21193;-60
2022/05/07 11:39:15;;;;;;;14.65;7.20;;;;;;;;;;6229518;28;20046;-59
2022/05/07 11:42:26;;;;;;;14.27;6.15;;;;;;;;;;6228376;28;20069;-59
2022/05/07 11:45:29;;;;;;;12.10;6.20;;;;;;;;;;6230725;28;20149;-59
2022/05/07 11:48:30;;;;;;;11.65;6.63;;;;;;;;;;6230916;28;20053;-61
2022/05/07 11:51:31;;;;;;;12.60;6.40;;;;;;;;;;6232965;28;20068;-60
2022/05/07 11:54:32;;;;;;;17.20;7.00;;;;;;;;;;6228793;28;20069;-59
2022/05/07 11:57:34;;;;;;;15.03;7.07;;;;;;;;;;6233189;28;20076;-60
2022/05/07 12:00:40;;;;;;;15.88;7.57;;;;;;;;;;6230653;28;20140;-59
2022/05/07 12:03:41;;;;;;;16.88;7.32;;;;;;;;;;6230310;28;20529;-60
2022/05/07 12:06:41;;;;;;;9.80;5.90;;;;;;;;;;6226305;28;20056;-60
2022/05/07 12:09:42;;;;;;;14.18;6.32;;;;;;;;;;6228885;28;20100;-60
2022/05/07 12:12:47;;;;;;;14.40;6.88;;;;;;;;;;6228973;28;20140;-59
2022/05/07 12:19:11;;;;;;;15.20;7.50;;;;;;;;;;6230393;28;20393;-59
2022/05/07 12:32:11;;;;;;;12.48;8.02;;;;;;;;;;6229688;28;20068;-60
2022/05/07 12:35:12;;;;;;;14.10;8.05;;;;;;;;;;6231546;28;20103;-60
2022/05/07 12:38:12;;;;;;;14.43;8.07;;;;;;;;;;6230603;28;20128;-62
2022/05/07 12:41:13;;;;;;;14.20;7.85;;;;;;;;;;6230747;28;20042;-58
2022/05/07 12:44:14;;;;;;;19.00;7.43;;;;;;;;;;6228522;28;20504;-60
2022/05/07 12:47:17;;;;;;;12.50;7.53;;;;;;;;;;6230071;28;20064;-59
2022/05/07 12:50:17;;;;;;;15.57;7.88;;;;;;;;;;6230349;28;20502;-59
2022/05/07 12:53:18;;;;;;;14.68;7.35;;;;;;;;;;6229954;28;20045;-60
2022/05/07 12:56:19;;;;;;;13.85;6.93;;;;;;;;;;6229884;28;20565;-59
2022/05/07 12:59:19;;;;;;;10.73;7.20;;;;;;;;;;6229969;28;20115;-60
2022/05/07 13:02:20;;;;;;;12.50;7.30;;;;;;;;;;6228710;28;20567;-59
2022/05/07 13:05:21;;;;;;;14.45;7.50;;;;;;;;;;6231808;28;20049;-60
2022/05/07 13:08:22;;;;;;;12.32;6.88;;;;;;;;;;6227975;28;20054;-60
2022/05/07 13:11:22;;;;;;;13.02;7.57;;;;;;;;;;6230672;28;20727;-60
2022/05/07 13:14:24;;;;;;;12.80;7.17;;;;;;;;;;6233163;28;20522;-59
2022/05/07 13:17:25;;;;;;;;;;;;;;;;;;6229787;28;20053;-60
2022/05/07 13:20:27;;;;;;;13.13;7.68;;;;;;;;;;6238884;28;20444;-59
2022/05/07 13:23:28;;;;;;;14.25;7.50;;;;;;;;;;6233319;28;20054;-60
2022/05/07 13:26:29;;;;;;;12.95;7.50;;;;;;;;;;6215828;28;20148;-60
2022/05/07 13:29:32;;;;;;;;;;;;;;;;;;6236271;28;20868;-60
2022/05/07 13:32:32;;;;;;;18.63;9.75;;;;;;;;;;6239589;28;19925;-60
2022/05/07 13:35:33;;;;;;;13.73;9.23;;;;;;;;;;6238176;28;20625;-60
2022/05/07 13:38:33;;;;;;;14.52;8.93;;;;;;;;;;6224657;28;20045;-60
2022/05/07 13:41:34;;;;;;;18.77;9.13;;;;;;;;;;6237914;28;20115;-60
2022/05/07 13:44:37;;;;;;;14.13;9.40;;;;;;;;;;6231148;28;20080;-59
2022/05/07 13:47:41;;;;;;;17.77;10.02;;;;;;;;;;6212587;28;20038;-60
2022/05/07 13:50:42;;;;;;;16.27;9.57;;;;;;;;;;6224182;28;20049;-58
2022/05/07 13:53:43;;;;;;;18.23;9.43;;;;;;;;;;6239970;28;20084;-60
2022/05/07 13:56:43;;;;;;;14.77;9.60;;;;;;;;;;6240744;28;20048;-60
2022/05/07 13:59:46;;;;;;;18.07;10.20;;;;;;;;;;6215841;28;20045;-60
2022/05/07 14:02:47;;;;;;;16.63;9.32;;;;;;;;;;6222623;28;20052;-60
2022/05/07 14:05:49;;;;;;;16.40;9.43;;;;;;;;;;6240607;28;20049;-61
2022/05/07 14:08:50;;;;;;;15.23;9.25;;;;;;;;;;6241548;28;20125;-60
2022/05/07 14:11:51;;;;;;;17.33;9.32;;;;;;;;;;6245460;28;20072;-60
2022/05/07 14:14:51;;;;;;;17.25;10.50;;;;;;;;;;6243557;28;20411;-60
2022/05/07 14:17:52;;;;;;;17.20;10.53;;;;;;;;;;6243363;28;20064;-59
2022/05/07 14:20:56;;;;;;;17.43;10.30;;;;;;;;;;6244929;28;20149;-59
2022/05/07 14:23:57;;;;;;;16.52;9.63;;;;;;;;;;6242623;28;20053;-60
2022/05/07 14:26:58;;;;;;;16.73;10.07;;;;;;;;;;6243733;28;20623;-60
2022/05/07 14:29:59;;;;;;;15.52;9.93;;;;;;;;;;6243590;28;20045;-60
2022/05/07 14:32:59;;;;;;;18.20;11.00;;;;;;;;;;6243094;28;20049;-60
2022/05/07 14:36:00;;;;;;;20.53;12.73;;;;;;;;;;6244619;28;20373;-60
2022/05/07 14:39:00;;;;;;;20.90;11.60;;;;;;;;;;6242588;28;20115;-60
2022/05/07 14:42:02;;;;;;;20.53;11.23;;;;;;;;;;6226748;28;20050;-60
2022/05/07 14:45:02;;;;;;;18.00;11.43;;;;;;;;;;6238307;28;20088;-60
2022/05/07 14:48:04;;;;;;;18.33;11.60;;;;;;;;;;6243563;28;20912;-60
2022/05/07 14:51:04;;;;;;;19.90;12.35;;;;;;;;;;6243110;28;20072;-60
2022/05/07 14:54:05;;;;;;;19.67;11.53;;;;;;;;;;6236496;28;20038;-59
2022/05/07 14:57:06;;;;;;;20.53;12.70;;;;;;;;;;6234735;28;20159;-60
2022/05/07 15:00:09;;;;;;;23.80;14.63;;;;;;;;;;6242358;28;20445;-59
2022/05/07 15:03:09;;;;;;;21.98;12.75;;;;;;;;;;6236047;28;20955;-58
2022/05/07 15:06:10;;;;;;;18.60;11.77;;;;;;;;;;6241191;28;20049;-60
2022/05/07 15:12:31;;;;;;;20.58;12.55;;;;;;;;;;6219253;28;20413;-60
2022/05/07 15:15:31;;;;;;;26.88;16.17;;;;;;;;;;6235290;28;20407;-60
2022/05/07 15:18:32;;;;;;;23.60;14.30;;;;;;;;;;6240850;28;20057;-60
2022/05/07 15:21:32;;;;;;;21.83;12.27;;;;;;;;;;6237492;28;20128;-59
2022/05/07 15:24:33;;;;;;;24.63;12.90;;;;;;;;;;6237204;28;20466;-60
2022/05/07 15:27:33;;;;;;;21.27;11.87;;;;;;;;;;6240339;28;20510;-60
2022/05/07 15:30:34;;;;;;;21.07;12.27;;;;;;;;;;6218731;28;20049;-60
2022/05/07 15:36:55;;;;;;;20.77;12.55;;;;;;;;;;6226856;28;20103;-60
2022/05/07 15:39:56;;;;;;;24.88;14.30;;;;;;;;;;6236118;28;21102;-60
2022/05/07 15:42:57;;;;;;;18.90;11.93;;;;;;;;;;6234327;28;20059;-60
2022/05/07 15:45:58;;;;;;;17.52;11.77;;;;;;;;;;6232455;28;20085;-60
2022/05/07 15:48:59;;;;;;;21.73;13.00;;;;;;;;;;6220941;28;20420;-60
2022/05/07 15:51:59;;;;;;;18.90;11.57;;;;;;;;;;6240663;28;20132;-58
2022/05/07 15:55:01;;;;;;;22.07;12.87;;;;;;;;;;6226031;28;20049;-60
2022/05/07 15:58:01;;;;;;;16.90;11.40;;;;;;;;;;6242665;28;20581;-59
2022/05/07 16:01:04;;;;;;;24.40;12.70;;;;;;;;;;6239461;28;20076;-60
2022/05/07 16:04:08;;;;;;;17.60;12.10;;;;;;;;;;6243030;28;20061;-60
2022/05/07 16:07:09;;;;;;;22.08;12.93;;;;;;;;;;6242945;28;20065;-60
2022/05/07 16:10:09;;;;;;;21.67;13.87;;;;;;;;;;6239530;28;20488;-60
2022/05/07 16:13:12;;;;;;;19.03;12.83;;;;;;;;;;6240144;28;20049;-59
2022/05/07 16:16:12;;;;;;;23.00;13.68;;;;;;;;;;6227518;28;20069;-60
2022/05/07 16:19:13;;;;;;;20.93;13.17;;;;;;;;;;6242203;28;20427;-60
2022/05/07 16:25:34;;;;;;;24.85;16.52;;;;;;;;;;6241330;28;20068;-58
2022/05/07 16:28:34;;;;;;;23.67;14.00;;;;;;;;;;6235283;28;20103;-60
2022/05/07 16:31:35;;;;;;;19.23;12.33;;;;;;;;;;6239235;28;20045;-60
2022/05/07 16:34:36;;;;;;;22.90;14.20;;;;;;;;;;6242776;28;20531;-60
2022/05/07 16:37:36;;;;;;;22.03;13.93;;;;;;;;;;6232253;28;20045;-60
2022/05/07 16:40:37;;;;;;;21.27;12.03;;;;;;;;;;6239925;28;20552;-59
2022/05/07 16:43:37;;;;;;;18.73;13.40;;;;;;;;;;6241310;28;20037;-60
2022/05/07 16:46:38;;;;;;;24.27;13.63;;;;;;;;;;6238525;28;20431;-62
2022/05/07 16:49:39;;;;;;;54.33;26.93;;;;;;;;;;6232615;28;20066;-62
2022/05/07 16:52:41;;;;;;;32.17;18.90;;;;;;;;;;6223384;28;20042;-62
2022/05/07 16:55:42;;;;;;;36.45;19.10;;;;;;;;;;6223594;28;20177;-61
2022/05/07 16:58:42;;;;;;;22.10;16.17;;;;;;;;;;6231354;28;20638;-62
2022/05/07 17:01:43;;;;;;;28.83;17.83;;;;;;;;;;6228050;28;20052;-60
2022/05/07 17:04:43;;;;;;;24.97;16.27;;;;;;;;;;6242059;28;20049;-60
2022/05/07 17:07:44;;;;;;;26.13;16.17;;;;;;;;;;6232008;28;20050;-59
2022/05/07 17:10:45;;;;;;;23.87;15.53;;;;;;;;;;6231630;28;20570;-60
2022/05/07 17:13:45;;;;;;;25.47;16.17;;;;;;;;;;6228627;28;20048;-61
2022/05/07 17:16:46;;;;;;;24.53;17.13;;;;;;;;;;6241215;28;20533;-60
2022/05/07 17:19:48;;;;;;;26.93;18.33;;;;;;;;;;6240291;28;20054;-61
2022/05/07 17:22:49;;;;;;;28.45;19.35;;;;;;;;;;6237916;28;20069;-60
2022/05/07 17:25:49;;;;;;;29.47;18.83;;;;;;;;;;6232245;28;20091;-60
2022/05/07 17:28:50;;;;;;;26.47;17.57;;;;;;;;;;6230724;28;20033;-61
2022/05/07 17:31:51;;;;;;;31.67;18.70;;;;;;;;;;6221057;28;20046;-60
2022/05/07 17:34:51;;;;;;;31.38;19.42;;;;;;;;;;6232781;28;20136;-59
2022/05/07 17:37:52;;;;;;;32.30;20.37;;;;;;;;;;6229863;28;20041;-60
2022/05/07 17:40:53;;;;;;;33.60;21.97;;;;;;;;;;6235070;28;20049;-61
2022/05/07 17:43:54;;;;;;;36.70;23.30;;;;;;;;;;6237871;28;20041;-60
2022/05/07 17:46:54;;;;;;;32.80;20.77;;;;;;;;;;6238483;28;20119;-59
2022/05/07 17:49:55;;;;;;;36.60;21.57;;;;;;;;;;6236670;28;20144;-60
2022/05/07 17:52:56;;;;;;;33.00;20.20;;;;;;;;;;6237586;28;20173;-59
2022/05/07 17:55:57;;;;;;;36.90;20.13;;;;;;;;;;6236091;28;20103;-59
2022/05/07 17:58:58;;;;;;;38.42;21.50;;;;;;;;;;6238237;28;20338;-59
2022/05/07 18:02:00;;;;;;;27.37;18.30;;;;;;;;;;6237522;28;20045;-60
2022/05/07 18:05:00;;;;;;;30.58;19.10;;;;;;;;;;6237451;28;20064;-60
2022/05/07 18:08:01;;;;;;;33.05;19.02;;;;;;;;;;6239458;28;20037;-60
2022/05/07 18:11:01;;;;;;;33.03;20.75;;;;;;;;;;6233731;28;20175;-60
2022/05/07 18:14:02;;;;;;;32.35;20.48;;;;;;;;;;6233754;28;20418;-60
2022/05/07 18:17:03;;;;;;;35.45;22.60;;;;;;;;;;6236803;28;20087;-59
2022/05/07 18:20:04;;;;;;;35.08;21.35;;;;;;;;;;6237579;28;20072;-58
2022/05/07 18:23:05;;;;;;;41.90;24.88;;;;;;;;;;6233410;28;20041;-59
2022/05/07 18:26:06;;;;;;;34.80;22.30;;;;;;;;;;6234510;28;20037;-59
2022/05/07 18:29:07;;;;;;;37.55;20.90;;;;;;;;;;6237814;28;20128;-58
2022/05/07 18:32:09;;;;;;;35.33;21.88;;;;;;;;;;6236305;28;20030;-58
2022/05/07 18:35:10;;;;;;;34.08;20.52;;;;;;;;;;6233038;28;20512;-59
2022/05/07 18:44:50;;;;;;;38.30;23.98;;;;;;;;;;6234255;28;20523;-59